sensor_id;sensor_type;location;lat;lon;timestamp;P1;durP1;ratioP1;P2;durP2;ratioP2
46731;SDS011;32477;51.474;5.696;2023-03-01T00:00:53;13.25;;;7.03;;
46731;SDS011;32477;51.474;5.696;2023-03-01T00:03:18;14.98;;;7.85;;
46731;SDS011;32477;51.474;5.696;2023-03-01T00:05:44;15.10;;;7.00;;
46731;SDS011;32477;51.474;5.696;2023-03-01T00:08:11;12.93;;;7.38;;
46731;SDS011;32477;51.474;5.696;2023-03-01T00:10:36;21.20;;;8.77;;
46731;SDS011;32477;51.474;5.696;2023-03-01T00:13:02;17.08;;;7.93;;
46731;SDS011;32477;51.474;5.696;2023-03-01T00:15:30;15.57;;;7.65;;
46731;SDS011;32477;51.474;5.696;2023-03-01T00:17:56;16.45;;;8.02;;
46731;SDS011;32477;51.474;5.696;2023-03-01T00:20:22;18.85;;;7.53;;
46731;SDS011;32477;51.474;5.696;2023-03-01T00:22:48;15.55;;;7.47;;
46731;SDS011;32477;51.474;5.696;2023-03-01T00:25:13;16.83;;;8.15;;
46731;SDS011;32477;51.474;5.696;2023-03-01T00:27:39;13.75;;;6.80;;
46731;SDS011;32477;51.474;5.696;2023-03-01T00:30:05;15.52;;;6.80;;
46731;SDS011;32477;51.474;5.696;2023-03-01T00:32:31;13.50;;;7.47;;
46731;SDS011;32477;51.474;5.696;2023-03-01T00:34:56;14.07;;;7.72;;
46731;SDS011;32477;51.474;5.696;2023-03-01T00:37:22;13.00;;;7.10;;
46731;SDS011;32477;51.474;5.696;2023-03-01T00:39:48;13.35;;;7.22;;
46731;SDS011;32477;51.474;5.696;2023-03-01T00:42:14;17.65;;;6.72;;
46731;SDS011;32477;51.474;5.696;2023-03-01T00:44:40;14.50;;;7.68;;
46731;SDS011;32477;51.474;5.696;2023-03-01T00:47:06;19.65;;;7.95;;
46731;SDS011;32477;51.474;5.696;2023-03-01T00:49:31;15.07;;;6.72;;
46731;SDS011;32477;51.474;5.696;2023-03-01T00:51:57;12.88;;;6.82;;
46731;SDS011;32477;51.474;5.696;2023-03-01T00:54:22;12.85;;;7.80;;
46731;SDS011;32477;51.474;5.696;2023-03-01T00:56:48;14.68;;;7.32;;
46731;SDS011;32477;51.474;5.696;2023-03-01T00:59:14;14.70;;;7.53;;
46731;SDS011;32477;51.474;5.696;2023-03-01T01:01:39;13.65;;;7.00;;
46731;SDS011;32477;51.474;5.696;2023-03-01T01:04:06;10.98;;;6.47;;
46731;SDS011;32477;51.474;5.696;2023-03-01T01:06:35;12.48;;;6.63;;
46731;SDS011;32477;51.474;5.696;2023-03-01T01:09:07;18.20;;;7.22;;
46731;SDS011;32477;51.474;5.696;2023-03-01T01:11:34;13.95;;;7.75;;
46731;SDS011;32477;51.474;5.696;2023-03-01T01:14:01;12.48;;;7.38;;
46731;SDS011;32477;51.474;5.696;2023-03-01T01:16:28;15.32;;;7.55;;
46731;SDS011;32477;51.474;5.696;2023-03-01T01:18:53;15.27;;;8.23;;
46731;SDS011;32477;51.474;5.696;2023-03-01T01:21:21;14.88;;;7.63;;
46731;SDS011;32477;51.474;5.696;2023-03-01T01:23:48;13.38;;;7.10;;
46731;SDS011;32477;51.474;5.696;2023-03-01T01:26:19;21.33;;;7.60;;
46731;SDS011;32477;51.474;5.696;2023-03-01T01:28:50;13.98;;;7.38;;
46731;SDS011;32477;51.474;5.696;2023-03-01T01:31:16;14.07;;;6.85;;
46731;SDS011;32477;51.474;5.696;2023-03-01T01:33:42;13.85;;;8.02;;
46731;SDS011;32477;51.474;5.696;2023-03-01T01:36:08;15.65;;;7.75;;
46731;SDS011;32477;51.474;5.696;2023-03-01T01:38:35;9.13;;;5.72;;
46731;SDS011;32477;51.474;5.696;2023-03-01T01:41:02;15.23;;;7.68;;
46731;SDS011;32477;51.474;5.696;2023-03-01T01:43:29;14.35;;;7.43;;
46731;SDS011;32477;51.474;5.696;2023-03-01T01:46:01;13.18;;;6.90;;
46731;SDS011;32477;51.474;5.696;2023-03-01T01:48:36;16.55;;;7.70;;
46731;SDS011;32477;51.474;5.696;2023-03-01T01:51:07;15.10;;;7.30;;
46731;SDS011;32477;51.474;5.696;2023-03-01T01:53:38;13.80;;;6.95;;
46731;SDS011;32477;51.474;5.696;2023-03-01T01:56:05;12.70;;;7.47;;
46731;SDS011;32477;51.474;5.696;2023-03-01T01:58:33;16.60;;;6.88;;
46731;SDS011;32477;51.474;5.696;2023-03-01T02:01:00;14.35;;;7.90;;
46731;SDS011;32477;51.474;5.696;2023-03-01T02:03:29;14.70;;;7.25;;
46731;SDS011;32477;51.474;5.696;2023-03-01T02:08:59;13.15;;;6.68;;
46731;SDS011;32477;51.474;5.696;2023-03-01T02:11:29;14.18;;;7.22;;
46731;SDS011;32477;51.474;5.696;2023-03-01T02:13:56;12.13;;;7.28;;
46731;SDS011;32477;51.474;5.696;2023-03-01T02:16:22;15.95;;;7.30;;
46731;SDS011;32477;51.474;5.696;2023-03-01T02:18:48;12.93;;;6.85;;
46731;SDS011;32477;51.474;5.696;2023-03-01T02:24:18;16.13;;;8.00;;
46731;SDS011;32477;51.474;5.696;2023-03-01T02:27:05;14.77;;;7.43;;
46731;SDS011;32477;51.474;5.696;2023-03-01T02:29:31;13.27;;;7.40;;
46731;SDS011;32477;51.474;5.696;2023-03-01T02:31:57;17.05;;;6.70;;
46731;SDS011;32477;51.474;5.696;2023-03-01T02:34:27;14.00;;;7.68;;
46731;SDS011;32477;51.474;5.696;2023-03-01T02:39:24;12.43;;;7.35;;
46731;SDS011;32477;51.474;5.696;2023-03-01T02:41:59;14.75;;;7.47;;
46731;SDS011;32477;51.474;5.696;2023-03-01T02:44:26;14.23;;;7.13;;
46731;SDS011;32477;51.474;5.696;2023-03-01T02:46:52;15.68;;;8.25;;
46731;SDS011;32477;51.474;5.696;2023-03-01T02:57:23;14.32;;;7.70;;
46731;SDS011;32477;51.474;5.696;2023-03-01T02:59:52;12.32;;;7.38;;
46731;SDS011;32477;51.474;5.696;2023-03-01T03:02:25;20.48;;;8.10;;
46731;SDS011;32477;51.474;5.696;2023-03-01T03:05:12;21.00;;;8.10;;
46731;SDS011;32477;51.474;5.696;2023-03-01T03:07:42;17.25;;;8.02;;
46731;SDS011;32477;51.474;5.696;2023-03-01T03:12:50;14.52;;;7.68;;
46731;SDS011;32477;51.474;5.696;2023-03-01T03:15:17;17.80;;;8.23;;
46731;SDS011;32477;51.474;5.696;2023-03-01T03:17:43;14.57;;;7.88;;
46731;SDS011;32477;51.474;5.696;2023-03-01T03:20:10;15.85;;;7.32;;
46731;SDS011;32477;51.474;5.696;2023-03-01T03:22:40;13.93;;;7.65;;
46731;SDS011;32477;51.474;5.696;2023-03-01T03:25:06;18.38;;;7.05;;
46731;SDS011;32477;51.474;5.696;2023-03-01T03:27:39;21.63;;;8.02;;
46731;SDS011;32477;51.474;5.696;2023-03-01T03:30:07;15.07;;;7.80;;
46731;SDS011;32477;51.474;5.696;2023-03-01T03:32:35;13.88;;;7.28;;
46731;SDS011;32477;51.474;5.696;2023-03-01T03:35:01;13.60;;;7.65;;
46731;SDS011;32477;51.474;5.696;2023-03-01T03:37:33;13.85;;;7.47;;
46731;SDS011;32477;51.474;5.696;2023-03-01T03:40:20;18.00;;;7.95;;
46731;SDS011;32477;51.474;5.696;2023-03-01T03:42:45;12.68;;;7.47;;
46731;SDS011;32477;51.474;5.696;2023-03-01T03:45:11;16.10;;;8.18;;
46731;SDS011;32477;51.474;5.696;2023-03-01T03:47:37;14.98;;;7.35;;
46731;SDS011;32477;51.474;5.696;2023-03-01T03:50:02;12.93;;;7.22;;
46731;SDS011;32477;51.474;5.696;2023-03-01T03:52:28;15.23;;;8.15;;
46731;SDS011;32477;51.474;5.696;2023-03-01T03:54:54;16.83;;;8.05;;
46731;SDS011;32477;51.474;5.696;2023-03-01T03:57:19;13.23;;;8.02;;
46731;SDS011;32477;51.474;5.696;2023-03-01T03:59:46;16.20;;;8.10;;
46731;SDS011;32477;51.474;5.696;2023-03-01T04:02:11;18.00;;;8.30;;
46731;SDS011;32477;51.474;5.696;2023-03-01T04:04:37;18.35;;;8.43;;
46731;SDS011;32477;51.474;5.696;2023-03-01T04:07:03;17.98;;;8.73;;
46731;SDS011;32477;51.474;5.696;2023-03-01T04:09:28;16.33;;;7.53;;
46731;SDS011;32477;51.474;5.696;2023-03-01T04:11:55;16.10;;;7.82;;
46731;SDS011;32477;51.474;5.696;2023-03-01T04:14:20;15.45;;;8.27;;
46731;SDS011;32477;51.474;5.696;2023-03-01T04:16:46;15.65;;;8.38;;
46731;SDS011;32477;51.474;5.696;2023-03-01T04:19:12;13.93;;;8.18;;
46731;SDS011;32477;51.474;5.696;2023-03-01T04:21:40;13.40;;;7.72;;
46731;SDS011;32477;51.474;5.696;2023-03-01T04:24:05;17.27;;;8.10;;
46731;SDS011;32477;51.474;5.696;2023-03-01T04:26:31;19.55;;;8.65;;
46731;SDS011;32477;51.474;5.696;2023-03-01T04:28:57;13.70;;;7.80;;
46731;SDS011;32477;51.474;5.696;2023-03-01T04:31:23;16.45;;;8.00;;
46731;SDS011;32477;51.474;5.696;2023-03-01T04:33:49;15.40;;;8.60;;
46731;SDS011;32477;51.474;5.696;2023-03-01T04:36:17;15.45;;;8.38;;
46731;SDS011;32477;51.474;5.696;2023-03-01T04:38:43;17.77;;;8.80;;
46731;SDS011;32477;51.474;5.696;2023-03-01T04:41:12;18.52;;;8.30;;
46731;SDS011;32477;51.474;5.696;2023-03-01T04:43:38;18.23;;;8.73;;
46731;SDS011;32477;51.474;5.696;2023-03-01T04:46:05;15.63;;;8.48;;
46731;SDS011;32477;51.474;5.696;2023-03-01T04:48:34;18.15;;;9.10;;
46731;SDS011;32477;51.474;5.696;2023-03-01T04:51:01;14.95;;;7.60;;
46731;SDS011;32477;51.474;5.696;2023-03-01T04:53:27;13.48;;;8.02;;
46731;SDS011;32477;51.474;5.696;2023-03-01T04:55:56;13.98;;;8.40;;
46731;SDS011;32477;51.474;5.696;2023-03-01T04:58:22;15.55;;;9.23;;
46731;SDS011;32477;51.474;5.696;2023-03-01T05:00:48;16.48;;;8.18;;
46731;SDS011;32477;51.474;5.696;2023-03-01T05:03:14;16.73;;;8.43;;
46731;SDS011;32477;51.474;5.696;2023-03-01T05:05:43;20.77;;;9.52;;
46731;SDS011;32477;51.474;5.696;2023-03-01T05:08:10;13.82;;;8.32;;
46731;SDS011;32477;51.474;5.696;2023-03-01T05:10:42;17.48;;;8.27;;
46731;SDS011;32477;51.474;5.696;2023-03-01T05:13:11;16.88;;;8.52;;
46731;SDS011;32477;51.474;5.696;2023-03-01T05:15:38;15.90;;;8.18;;
46731;SDS011;32477;51.474;5.696;2023-03-01T05:18:04;16.00;;;9.02;;
46731;SDS011;32477;51.474;5.696;2023-03-01T05:20:36;15.60;;;7.68;;
46731;SDS011;32477;51.474;5.696;2023-03-01T05:23:03;18.00;;;9.30;;
46731;SDS011;32477;51.474;5.696;2023-03-01T05:25:30;20.52;;;9.65;;
46731;SDS011;32477;51.474;5.696;2023-03-01T05:27:58;18.88;;;7.43;;
46731;SDS011;32477;51.474;5.696;2023-03-01T05:30:29;14.90;;;8.60;;
46731;SDS011;32477;51.474;5.696;2023-03-01T05:32:55;18.38;;;9.30;;
46731;SDS011;32477;51.474;5.696;2023-03-01T05:35:21;15.98;;;9.40;;
46731;SDS011;32477;51.474;5.696;2023-03-01T05:37:47;18.45;;;9.23;;
46731;SDS011;32477;51.474;5.696;2023-03-01T05:40:20;17.15;;;8.77;;
46731;SDS011;32477;51.474;5.696;2023-03-01T05:42:50;18.73;;;9.55;;
46731;SDS011;32477;51.474;5.696;2023-03-01T05:45:20;21.08;;;8.63;;
46731;SDS011;32477;51.474;5.696;2023-03-01T05:47:46;19.27;;;8.75;;
46731;SDS011;32477;51.474;5.696;2023-03-01T05:50:17;15.70;;;8.93;;
46731;SDS011;32477;51.474;5.696;2023-03-01T05:52:51;22.02;;;9.25;;
46731;SDS011;32477;51.474;5.696;2023-03-01T05:55:21;20.23;;;9.07;;
46731;SDS011;32477;51.474;5.696;2023-03-01T05:57:47;20.98;;;9.40;;
46731;SDS011;32477;51.474;5.696;2023-03-01T06:00:15;23.05;;;9.48;;
46731;SDS011;32477;51.474;5.696;2023-03-01T06:02:42;22.77;;;8.70;;
46731;SDS011;32477;51.474;5.696;2023-03-01T06:05:08;20.55;;;9.88;;
46731;SDS011;32477;51.474;5.696;2023-03-01T06:07:35;23.65;;;9.80;;
46731;SDS011;32477;51.474;5.696;2023-03-01T06:10:02;16.85;;;9.32;;
46731;SDS011;32477;51.474;5.696;2023-03-01T06:12:35;18.25;;;10.43;;
46731;SDS011;32477;51.474;5.696;2023-03-01T06:15:02;19.60;;;9.20;;
46731;SDS011;32477;51.474;5.696;2023-03-01T06:17:31;19.50;;;9.35;;
46731;SDS011;32477;51.474;5.696;2023-03-01T06:19:58;19.73;;;10.32;;
46731;SDS011;32477;51.474;5.696;2023-03-01T06:22:23;17.20;;;9.45;;
46731;SDS011;32477;51.474;5.696;2023-03-01T06:24:49;18.30;;;9.23;;
46731;SDS011;32477;51.474;5.696;2023-03-01T06:27:15;23.60;;;9.50;;
46731;SDS011;32477;51.474;5.696;2023-03-01T06:29:41;19.17;;;9.98;;
46731;SDS011;32477;51.474;5.696;2023-03-01T06:32:06;30.02;;;10.45;;
46731;SDS011;32477;51.474;5.696;2023-03-01T06:34:33;17.50;;;9.20;;
46731;SDS011;32477;51.474;5.696;2023-03-01T06:36:58;21.75;;;10.32;;
46731;SDS011;32477;51.474;5.696;2023-03-01T06:39:24;22.77;;;9.57;;
46731;SDS011;32477;51.474;5.696;2023-03-01T06:41:52;18.63;;;10.55;;
46731;SDS011;32477;51.474;5.696;2023-03-01T06:44:18;24.95;;;9.85;;
46731;SDS011;32477;51.474;5.696;2023-03-01T06:46:43;22.27;;;9.52;;
46731;SDS011;32477;51.474;5.696;2023-03-01T06:49:09;20.33;;;10.18;;
46731;SDS011;32477;51.474;5.696;2023-03-01T06:51:35;21.20;;;10.55;;
46731;SDS011;32477;51.474;5.696;2023-03-01T06:54:02;14.75;;;9.10;;
46731;SDS011;32477;51.474;5.696;2023-03-01T06:56:29;23.92;;;9.75;;
46731;SDS011;32477;51.474;5.696;2023-03-01T06:58:55;21.05;;;9.90;;
46731;SDS011;32477;51.474;5.696;2023-03-01T07:01:20;21.23;;;10.75;;
46731;SDS011;32477;51.474;5.696;2023-03-01T07:03:46;17.75;;;10.32;;
46731;SDS011;32477;51.474;5.696;2023-03-01T07:06:12;19.92;;;8.77;;
46731;SDS011;32477;51.474;5.696;2023-03-01T07:08:37;22.67;;;11.00;;
46731;SDS011;32477;51.474;5.696;2023-03-01T07:11:03;17.83;;;9.18;;
46731;SDS011;32477;51.474;5.696;2023-03-01T07:13:29;20.10;;;10.10;;
46731;SDS011;32477;51.474;5.696;2023-03-01T07:15:55;24.35;;;9.27;;
46731;SDS011;32477;51.474;5.696;2023-03-01T07:18:20;17.08;;;8.73;;
46731;SDS011;32477;51.474;5.696;2023-03-01T07:20:46;18.02;;;10.13;;
46731;SDS011;32477;51.474;5.696;2023-03-01T07:23:12;19.83;;;9.13;;
46731;SDS011;32477;51.474;5.696;2023-03-01T07:25:37;18.88;;;9.40;;
46731;SDS011;32477;51.474;5.696;2023-03-01T07:28:03;19.13;;;9.27;;
46731;SDS011;32477;51.474;5.696;2023-03-01T07:30:29;19.00;;;9.20;;
46731;SDS011;32477;51.474;5.696;2023-03-01T07:32:55;17.70;;;9.20;;
46731;SDS011;32477;51.474;5.696;2023-03-01T07:35:22;17.98;;;9.82;;
46731;SDS011;32477;51.474;5.696;2023-03-01T07:37:49;17.33;;;9.23;;
46731;SDS011;32477;51.474;5.696;2023-03-01T07:40:15;21.67;;;10.13;;
46731;SDS011;32477;51.474;5.696;2023-03-01T07:42:41;19.77;;;11.15;;
46731;SDS011;32477;51.474;5.696;2023-03-01T07:45:07;19.75;;;8.70;;
46731;SDS011;32477;51.474;5.696;2023-03-01T07:47:32;15.30;;;8.77;;
46731;SDS011;32477;51.474;5.696;2023-03-01T07:49:58;14.88;;;7.70;;
46731;SDS011;32477;51.474;5.696;2023-03-01T07:52:24;15.80;;;8.50;;
46731;SDS011;32477;51.474;5.696;2023-03-01T07:54:50;11.63;;;6.97;;
46731;SDS011;32477;51.474;5.696;2023-03-01T07:57:15;12.48;;;7.20;;
46731;SDS011;32477;51.474;5.696;2023-03-01T07:59:41;11.25;;;7.20;;
46731;SDS011;32477;51.474;5.696;2023-03-01T08:02:07;13.85;;;7.75;;
46731;SDS011;32477;51.474;5.696;2023-03-01T08:04:34;16.48;;;7.63;;
46731;SDS011;32477;51.474;5.696;2023-03-01T08:07:00;15.77;;;6.97;;
46731;SDS011;32477;51.474;5.696;2023-03-01T08:09:25;16.77;;;8.25;;
46731;SDS011;32477;51.474;5.696;2023-03-01T08:11:51;12.73;;;7.40;;
46731;SDS011;32477;51.474;5.696;2023-03-01T08:14:17;15.55;;;6.60;;
46731;SDS011;32477;51.474;5.696;2023-03-01T08:16:42;11.65;;;7.40;;
46731;SDS011;32477;51.474;5.696;2023-03-01T08:19:09;11.68;;;6.47;;
46731;SDS011;32477;51.474;5.696;2023-03-01T08:21:36;15.75;;;7.03;;
46731;SDS011;32477;51.474;5.696;2023-03-01T08:24:03;11.27;;;7.20;;
46731;SDS011;32477;51.474;5.696;2023-03-01T08:26:30;11.35;;;7.68;;
46731;SDS011;32477;51.474;5.696;2023-03-01T08:28:57;14.95;;;7.38;;
46731;SDS011;32477;51.474;5.696;2023-03-01T08:31:24;11.93;;;7.70;;
46731;SDS011;32477;51.474;5.696;2023-03-01T08:33:52;12.00;;;7.55;;
46731;SDS011;32477;51.474;5.696;2023-03-01T08:36:24;11.77;;;7.03;;
46731;SDS011;32477;51.474;5.696;2023-03-01T08:38:52;10.70;;;6.82;;
46731;SDS011;32477;51.474;5.696;2023-03-01T08:41:18;11.82;;;6.55;;
46731;SDS011;32477;51.474;5.696;2023-03-01T08:43:44;12.07;;;7.03;;
46731;SDS011;32477;51.474;5.696;2023-03-01T08:46:10;12.05;;;7.30;;
46731;SDS011;32477;51.474;5.696;2023-03-01T08:48:36;14.15;;;6.57;;
46731;SDS011;32477;51.474;5.696;2023-03-01T08:51:15;14.77;;;7.15;;
46731;SDS011;32477;51.474;5.696;2023-03-01T08:53:43;15.73;;;7.35;;
46731;SDS011;32477;51.474;5.696;2023-03-01T08:56:10;11.15;;;6.90;;
46731;SDS011;32477;51.474;5.696;2023-03-01T08:58:36;11.70;;;6.80;;
46731;SDS011;32477;51.474;5.696;2023-03-01T09:01:09;9.55;;;6.25;;
46731;SDS011;32477;51.474;5.696;2023-03-01T09:03:35;12.13;;;6.75;;
46731;SDS011;32477;51.474;5.696;2023-03-01T09:06:02;11.13;;;7.30;;
46731;SDS011;32477;51.474;5.696;2023-03-01T09:08:29;9.80;;;6.57;;
46731;SDS011;32477;51.474;5.696;2023-03-01T09:10:55;16.35;;;7.30;;
46731;SDS011;32477;51.474;5.696;2023-03-01T09:13:21;9.30;;;6.78;;
46731;SDS011;32477;51.474;5.696;2023-03-01T09:15:52;11.05;;;6.80;;
46731;SDS011;32477;51.474;5.696;2023-03-01T09:18:17;13.30;;;6.88;;
46731;SDS011;32477;51.474;5.696;2023-03-01T09:20:43;11.48;;;7.15;;
46731;SDS011;32477;51.474;5.696;2023-03-01T09:23:09;9.70;;;6.22;;
46731;SDS011;32477;51.474;5.696;2023-03-01T09:25:34;10.68;;;6.55;;
46731;SDS011;32477;51.474;5.696;2023-03-01T09:28:01;14.18;;;6.68;;
46731;SDS011;32477;51.474;5.696;2023-03-01T09:30:26;12.27;;;6.63;;
46731;SDS011;32477;51.474;5.696;2023-03-01T09:32:52;16.10;;;6.55;;
46731;SDS011;32477;51.474;5.696;2023-03-01T09:35:18;16.77;;;7.13;;
46731;SDS011;32477;51.474;5.696;2023-03-01T09:37:45;16.73;;;6.32;;
46731;SDS011;32477;51.474;5.696;2023-03-01T09:40:12;11.40;;;6.35;;
46731;SDS011;32477;51.474;5.696;2023-03-01T09:42:48;12.05;;;7.65;;
46731;SDS011;32477;51.474;5.696;2023-03-01T09:45:37;13.02;;;7.03;;
46731;SDS011;32477;51.474;5.696;2023-03-01T09:48:10;10.63;;;7.35;;
46731;SDS011;32477;51.474;5.696;2023-03-01T09:50:41;12.98;;;6.90;;
46731;SDS011;32477;51.474;5.696;2023-03-01T09:53:10;13.00;;;7.47;;
46731;SDS011;32477;51.474;5.696;2023-03-01T09:55:44;11.05;;;7.22;;
46731;SDS011;32477;51.474;5.696;2023-03-01T10:00:54;10.20;;;6.85;;
46731;SDS011;32477;51.474;5.696;2023-03-01T10:06:04;15.60;;;8.23;;
46731;SDS011;32477;51.474;5.696;2023-03-01T10:11:22;16.98;;;8.43;;
46731;SDS011;32477;51.474;5.696;2023-03-01T10:13:55;13.75;;;8.25;;
46731;SDS011;32477;51.474;5.696;2023-03-01T10:19:11;11.98;;;7.22;;
46731;SDS011;32477;51.474;5.696;2023-03-01T10:21:50;16.25;;;8.38;;
46731;SDS011;32477;51.474;5.696;2023-03-01T10:24:17;14.07;;;8.25;;
46731;SDS011;32477;51.474;5.696;2023-03-01T10:29:21;14.38;;;8.00;;
46731;SDS011;32477;51.474;5.696;2023-03-01T10:31:51;15.23;;;8.30;;
46731;SDS011;32477;51.474;5.696;2023-03-01T10:34:25;12.77;;;7.80;;
46731;SDS011;32477;51.474;5.696;2023-03-01T10:36:57;13.60;;;8.02;;
46731;SDS011;32477;51.474;5.696;2023-03-01T10:39:34;15.10;;;7.50;;
46731;SDS011;32477;51.474;5.696;2023-03-01T10:42:01;11.88;;;7.43;;
46731;SDS011;32477;51.474;5.696;2023-03-01T10:47:19;11.43;;;7.85;;
46731;SDS011;32477;51.474;5.696;2023-03-01T10:49:56;15.27;;;7.93;;
46731;SDS011;32477;51.474;5.696;2023-03-01T10:52:35;14.13;;;7.60;;
46731;SDS011;32477;51.474;5.696;2023-03-01T10:57:44;13.90;;;8.07;;
46731;SDS011;32477;51.474;5.696;2023-03-01T11:02:51;12.57;;;7.40;;
46731;SDS011;32477;51.474;5.696;2023-03-01T11:05:28;11.15;;;6.68;;
46731;SDS011;32477;51.474;5.696;2023-03-01T11:07:56;15.70;;;7.72;;
46731;SDS011;32477;51.474;5.696;2023-03-01T11:10:33;13.18;;;7.22;;
46731;SDS011;32477;51.474;5.696;2023-03-01T11:13:16;13.20;;;7.00;;
46731;SDS011;32477;51.474;5.696;2023-03-01T11:16:00;10.25;;;6.32;;
46731;SDS011;32477;51.474;5.696;2023-03-01T11:18:27;12.43;;;7.38;;
46731;SDS011;32477;51.474;5.696;2023-03-01T11:20:55;11.25;;;6.57;;
46731;SDS011;32477;51.474;5.696;2023-03-01T11:23:24;13.35;;;6.93;;
46731;SDS011;32477;51.474;5.696;2023-03-01T11:25:56;10.35;;;5.78;;
46731;SDS011;32477;51.474;5.696;2023-03-01T11:28:29;13.43;;;6.43;;
46731;SDS011;32477;51.474;5.696;2023-03-01T11:31:03;12.20;;;6.40;;
46731;SDS011;32477;51.474;5.696;2023-03-01T11:36:06;10.70;;;6.55;;
46731;SDS011;32477;51.474;5.696;2023-03-01T11:38:51;10.07;;;5.78;;
46731;SDS011;32477;51.474;5.696;2023-03-01T11:41:23;10.18;;;6.13;;
46731;SDS011;32477;51.474;5.696;2023-03-01T11:55:07;10.85;;;6.50;;
46731;SDS011;32477;51.474;5.696;2023-03-01T12:00:55;7.88;;;5.78;;
46731;SDS011;32477;51.474;5.696;2023-03-01T12:03:42;16.88;;;6.68;;
46731;SDS011;32477;51.474;5.696;2023-03-01T12:12:24;11.50;;;6.07;;
46731;SDS011;32477;51.474;5.696;2023-03-01T12:23:54;10.18;;;5.72;;
46731;SDS011;32477;51.474;5.696;2023-03-01T12:26:33;10.98;;;5.65;;
46731;SDS011;32477;51.474;5.696;2023-03-01T12:29:09;8.45;;;5.47;;
46731;SDS011;32477;51.474;5.696;2023-03-01T12:34:38;11.27;;;6.50;;
46731;SDS011;32477;51.474;5.696;2023-03-01T12:40:17;12.27;;;6.13;;
46731;SDS011;32477;51.474;5.696;2023-03-01T12:43:33;9.63;;;5.43;;
46731;SDS011;32477;51.474;5.696;2023-03-01T12:51:31;9.52;;;5.63;;
46731;SDS011;32477;51.474;5.696;2023-03-01T12:53:59;10.63;;;5.82;;
46731;SDS011;32477;51.474;5.696;2023-03-01T12:56:32;10.93;;;5.72;;
46731;SDS011;32477;51.474;5.696;2023-03-01T12:59:11;8.63;;;5.97;;
46731;SDS011;32477;51.474;5.696;2023-03-01T13:04:35;11.13;;;5.45;;
46731;SDS011;32477;51.474;5.696;2023-03-01T13:12:52;8.50;;;5.75;;
46731;SDS011;32477;51.474;5.696;2023-03-01T13:15:28;9.93;;;5.65;;
46731;SDS011;32477;51.474;5.696;2023-03-01T13:18:02;14.50;;;6.18;;
46731;SDS011;32477;51.474;5.696;2023-03-01T13:30:57;11.45;;;5.72;;
46731;SDS011;32477;51.474;5.696;2023-03-01T13:35:55;18.95;;;9.30;;
46731;SDS011;32477;51.474;5.696;2023-03-01T13:38:39;9.27;;;6.28;;
46731;SDS011;32477;51.474;5.696;2023-03-01T13:49:43;10.52;;;6.07;;
46731;SDS011;32477;51.474;5.696;2023-03-01T13:57:39;16.30;;;9.48;;
46731;SDS011;32477;51.474;5.696;2023-03-01T14:00:07;12.88;;;5.85;;
46731;SDS011;32477;51.474;5.696;2023-03-01T14:02:59;9.63;;;5.82;;
46731;SDS011;32477;51.474;5.696;2023-03-01T14:05:57;10.13;;;5.38;;
46731;SDS011;32477;51.474;5.696;2023-03-01T14:09:00;11.10;;;6.28;;
46731;SDS011;32477;51.474;5.696;2023-03-01T14:11:38;16.08;;;7.55;;
46731;SDS011;32477;51.474;5.696;2023-03-01T14:14:40;13.10;;;7.22;;
46731;SDS011;32477;51.474;5.696;2023-03-01T14:20:17;11.02;;;6.35;;
46731;SDS011;32477;51.474;5.696;2023-03-01T14:22:49;11.38;;;6.40;;
46731;SDS011;32477;51.474;5.696;2023-03-01T14:25:22;12.32;;;6.28;;
46731;SDS011;32477;51.474;5.696;2023-03-01T14:28:04;12.75;;;6.47;;
46731;SDS011;32477;51.474;5.696;2023-03-01T14:30:45;10.35;;;6.68;;
46731;SDS011;32477;51.474;5.696;2023-03-01T14:33:22;13.75;;;7.43;;
46731;SDS011;32477;51.474;5.696;2023-03-01T14:36:06;10.80;;;6.13;;
46731;SDS011;32477;51.474;5.696;2023-03-01T14:41:03;13.52;;;6.80;;
46731;SDS011;32477;51.474;5.696;2023-03-01T14:43:36;10.85;;;6.72;;
46731;SDS011;32477;51.474;5.696;2023-03-01T14:46:06;13.77;;;6.65;;
46731;SDS011;32477;51.474;5.696;2023-03-01T14:48:41;9.65;;;5.78;;
46731;SDS011;32477;51.474;5.696;2023-03-01T14:51:07;13.55;;;6.45;;
46731;SDS011;32477;51.474;5.696;2023-03-01T14:53:32;10.50;;;6.18;;
46731;SDS011;32477;51.474;5.696;2023-03-01T14:56:01;13.23;;;7.07;;
46731;SDS011;32477;51.474;5.696;2023-03-01T14:58:27;14.93;;;6.55;;
46731;SDS011;32477;51.474;5.696;2023-03-01T15:00:54;10.73;;;6.50;;
46731;SDS011;32477;51.474;5.696;2023-03-01T15:03:31;10.52;;;6.43;;
46731;SDS011;32477;51.474;5.696;2023-03-01T15:06:01;10.65;;;6.68;;
46731;SDS011;32477;51.474;5.696;2023-03-01T15:08:28;11.88;;;6.45;;
46731;SDS011;32477;51.474;5.696;2023-03-01T15:11:02;11.77;;;6.80;;
46731;SDS011;32477;51.474;5.696;2023-03-01T15:13:32;16.73;;;7.03;;
46731;SDS011;32477;51.474;5.696;2023-03-01T15:16:02;13.02;;;6.75;;
46731;SDS011;32477;51.474;5.696;2023-03-01T15:18:32;11.45;;;6.38;;
46731;SDS011;32477;51.474;5.696;2023-03-01T15:21:18;11.40;;;6.25;;
46731;SDS011;32477;51.474;5.696;2023-03-01T15:24:33;13.55;;;7.32;;
46731;SDS011;32477;51.474;5.696;2023-03-01T15:26:45;13.60;;;6.72;;
46731;SDS011;32477;51.474;5.696;2023-03-01T15:29:23;12.80;;;6.88;;
46731;SDS011;32477;51.474;5.696;2023-03-01T15:34:24;15.23;;;7.40;;
46731;SDS011;32477;51.474;5.696;2023-03-01T15:36:55;13.98;;;7.35;;
46731;SDS011;32477;51.474;5.696;2023-03-01T15:44:41;17.65;;;6.90;;
46731;SDS011;32477;51.474;5.696;2023-03-01T15:47:23;11.10;;;6.72;;
46731;SDS011;32477;51.474;5.696;2023-03-01T15:49:59;12.25;;;6.68;;
46731;SDS011;32477;51.474;5.696;2023-03-01T15:54:59;16.80;;;7.53;;
46731;SDS011;32477;51.474;5.696;2023-03-01T15:57:27;18.90;;;8.13;;
46731;SDS011;32477;51.474;5.696;2023-03-01T15:59:53;14.07;;;7.32;;
46731;SDS011;32477;51.474;5.696;2023-03-01T16:02:18;15.50;;;7.82;;
46731;SDS011;32477;51.474;5.696;2023-03-01T16:04:46;14.50;;;7.47;;
46731;SDS011;32477;51.474;5.696;2023-03-01T16:07:12;16.17;;;8.10;;
46731;SDS011;32477;51.474;5.696;2023-03-01T16:09:38;18.08;;;7.97;;
46731;SDS011;32477;51.474;5.696;2023-03-01T16:12:03;17.17;;;7.65;;
46731;SDS011;32477;51.474;5.696;2023-03-01T16:14:30;15.63;;;8.52;;
46731;SDS011;32477;51.474;5.696;2023-03-01T16:16:56;12.05;;;7.03;;
46731;SDS011;32477;51.474;5.696;2023-03-01T16:19:22;14.68;;;6.72;;
46731;SDS011;32477;51.474;5.696;2023-03-01T16:21:49;14.48;;;7.55;;
46731;SDS011;32477;51.474;5.696;2023-03-01T16:24:21;17.67;;;7.18;;
46731;SDS011;32477;51.474;5.696;2023-03-01T16:26:46;18.48;;;7.30;;
46731;SDS011;32477;51.474;5.696;2023-03-01T16:29:12;18.38;;;7.70;;
46731;SDS011;32477;51.474;5.696;2023-03-01T16:31:38;13.70;;;7.35;;
46731;SDS011;32477;51.474;5.696;2023-03-01T16:34:03;14.45;;;7.28;;
46731;SDS011;32477;51.474;5.696;2023-03-01T16:36:29;18.15;;;8.10;;
46731;SDS011;32477;51.474;5.696;2023-03-01T16:38:55;14.77;;;7.55;;
46731;SDS011;32477;51.474;5.696;2023-03-01T16:41:23;18.60;;;6.85;;
46731;SDS011;32477;51.474;5.696;2023-03-01T16:43:49;11.25;;;6.68;;
46731;SDS011;32477;51.474;5.696;2023-03-01T16:46:16;13.85;;;7.85;;
46731;SDS011;32477;51.474;5.696;2023-03-01T16:48:53;12.88;;;6.28;;
46731;SDS011;32477;51.474;5.696;2023-03-01T16:51:20;14.82;;;7.00;;
46731;SDS011;32477;51.474;5.696;2023-03-01T16:53:46;12.02;;;6.25;;
46731;SDS011;32477;51.474;5.696;2023-03-01T16:56:13;13.80;;;6.53;;
46731;SDS011;32477;51.474;5.696;2023-03-01T16:58:39;17.40;;;8.23;;
46731;SDS011;32477;51.474;5.696;2023-03-01T17:01:07;15.48;;;7.22;;